Z Brna se bude létat do pěti nových destinací, Čedok příští léto rozšíří se Smartwings bázi a nabídne celkem 17 míst

28.07.22 Z Brna se bude létat do pěti nových destinací, Čedok příští léto rozšíří se Smartwings bázi a nabídne celkem 17 míst Brno, 28. července 2022 Poptávka po odletech z regionálních letišť roste a letošní rekordní sezóna je toho důkazem. Češi mají o cestování zájem a vyprodané zájezdy ukazují, že chtějí využívat i letiště, která mají blízko ke svému bydlišti. Celý článek

Prázdniny jsou tady! Češi berou dovolené i poznávací zájezdy přes červencové státní svátky útokem

04.07.22 Školní rok úspěšně zakončený, volno v práci schválené a zavazadla připravená k odjezdu, aktuální realita v domácnostech tisíců Čechů, kteří se chystají hned na začátku léta na svou letní dovolenou. Čedok má jen v prvních dnech prázdnin naplánovaných 30 vlastních charterových letů, které jsou kompletně vyprodané. Celý článek

Zprávy

aktualizováno

10.08.22 Celý článek

Všechny zprávy    

Všechny články

Zeptejte se odborníka

Zkušený personál jedné z největších leteckých škol Flying Academy je připraven Vám pomoci s jakýmikoli otázkami týkajícími se letectví.

Zeptejte se

Newsletter

Přihlaste se k odběru novinek.

Aktuální počasí

LKKB
LKKB 100100Z 01003KT CAVOK 15/11 Q1026

LKKV
LKKV 100100Z 11002KT CAVOK 11/05 Q1027

LKMT
LKMT 100130Z VRB02KT CAVOK 14/11 Q1026 NOSIG

LKPR
LKPR 100130Z 34003KT CAVOK 16/11 Q1026 NOSIG

LKTB
LKTB 100130Z 35004KT CAVOK 17/10 Q1025 NOSIG

Briefing

Kurzy měn

AUD AUD 16.75 Kč
EUR EUR 24.45 Kč
GBP GBP 29.30 Kč
HUF HUF 6.47 Kč
CHF CHF 24.14 Kč
USD USD 22.52 Kč